Time;durP1;ratioP1;P1;durP2;ratioP2;P2;SDS_P1;SDS_P2;PMS_P1;PMS_P2;Temp;Humidity;BMP_temperature;BMP_pressure;BME280_temperature;BME280_humidity;BME280_pressure;Samples;Min_cycle;Max_cycle;Signal;HPM_P1;HPM_P2
2023/08/01 00:02:22;;;;;;;7.23;4.40;;;;;;;;;;5058834;28;20072;-72
2023/08/01 00:04:47;;;;;;;6.03;4.37;;;;;;;;;;5053100;28;20017;-72
2023/08/01 00:07:12;;;;;;;11.02;4.63;;;;;;;;;;5063488;28;20136;-72
2023/08/01 00:09:37;;;;;;;6.13;4.10;;;;;;;;;;5065711;28;20029;-72
2023/08/01 00:12:03;;;;;;;7.30;4.97;;;;;;;;;;5061687;28;20615;-70
2023/08/01 00:14:28;;;;;;;7.32;5.35;;;;;;;;;;5073011;28;20031;-71
2023/08/01 00:16:53;;;;;;;6.10;4.43;;;;;;;;;;5070484;28;20094;-70
2023/08/01 00:19:18;;;;;;;7.85;5.85;;;;;;;;;;5072611;28;20024;-70
2023/08/01 00:21:44;;;;;;;5.43;4.90;;;;;;;;;;5071845;28;20025;-70
2023/08/01 00:24:09;;;;;;;10.60;4.90;;;;;;;;;;5052001;28;20586;-70
2023/08/01 00:26:34;;;;;;;7.07;5.27;;;;;;;;;;5051190;28;20037;-70
2023/08/01 00:28:59;;;;;;;7.57;6.00;;;;;;;;;;5053211;28;20021;-70
2023/08/01 00:31:24;;;;;;;8.33;5.27;;;;;;;;;;5051240;28;20466;-70
2023/08/01 00:33:50;;;;;;;5.80;5.20;;;;;;;;;;5052707;28;20446;-70
2023/08/01 00:36:15;;;;;;;6.50;5.70;;;;;;;;;;5054982;28;20470;-71
2023/08/01 00:38:42;;;;;;;10.87;7.07;;;;;;;;;;5072884;28;20024;-71
2023/08/01 00:41:08;;;;;;;10.75;6.10;;;;;;;;;;5054849;28;20066;-70
2023/08/01 00:43:33;;;;;;;7.72;6.53;;;;;;;;;;5071427;28;20099;-70
2023/08/01 00:46:00;;;;;;;8.77;6.32;;;;;;;;;;5071614;28;20647;-70
2023/08/01 00:48:25;;;;;;;16.40;7.32;;;;;;;;;;5071658;28;20025;-71
2023/08/01 00:50:50;;;;;;;9.30;8.23;;;;;;;;;;5069724;28;20040;-70
2023/08/01 00:53:16;;;;;;;12.73;7.03;;;;;;;;;;5055588;28;20021;-70
2023/08/01 00:55:42;;;;;;;9.55;7.30;;;;;;;;;;5052456;28;20104;-71
2023/08/01 00:58:07;;;;;;;18.40;9.07;;;;;;;;;;5050841;28;20033;-71
2023/08/01 01:00:33;;;;;;;13.23;10.43;;;;;;;;;;5052297;28;20427;-71
2023/08/01 01:02:58;;;;;;;11.02;8.05;;;;;;;;;;5068240;28;20037;-71
2023/08/01 01:05:24;;;;;;;11.70;8.13;;;;;;;;;;5072214;28;20534;-71
2023/08/01 01:07:50;;;;;;;10.77;8.52;;;;;;;;;;5045199;28;20045;-72
2023/08/01 01:10:15;;;;;;;41.50;10.98;;;;;;;;;;5031903;28;20033;-72
2023/08/01 01:12:40;;;;;;;13.00;9.10;;;;;;;;;;5060117;28;20041;-72
2023/08/01 01:15:05;;;;;;;22.63;9.57;;;;;;;;;;5071996;28;20017;-72
2023/08/01 01:17:31;;;;;;;15.57;10.82;;;;;;;;;;5070277;28;20952;-73
2023/08/01 01:19:56;;;;;;;22.07;9.97;;;;;;;;;;5071739;28;20024;-72
2023/08/01 01:22:21;;;;;;;18.10;10.40;;;;;;;;;;5070172;28;20044;-72
2023/08/01 01:24:47;;;;;;;15.68;9.50;;;;;;;;;;5071610;28;20483;-72
2023/08/01 01:27:12;;;;;;;15.10;10.35;;;;;;;;;;5070134;28;20102;-71
2023/08/01 01:29:38;;;;;;;21.42;10.07;;;;;;;;;;5071655;28;20103;-71
2023/08/01 01:32:04;;;;;;;15.98;10.95;;;;;;;;;;5070290;28;20439;-71
2023/08/01 01:34:30;;;;;;;13.80;12.38;;;;;;;;;;5070488;28;20024;-72
2023/08/01 01:36:55;;;;;;;16.93;10.70;;;;;;;;;;5069896;28;20036;-71
2023/08/01 01:39:20;;;;;;;18.77;10.47;;;;;;;;;;5071551;28;20668;-72
2023/08/01 01:41:45;;;;;;;14.60;11.20;;;;;;;;;;5069947;28;20033;-72
2023/08/01 01:44:10;;;;;;;16.77;9.75;;;;;;;;;;5070175;28;20013;-72
2023/08/01 01:46:36;;;;;;;14.52;9.98;;;;;;;;;;5068549;28;20032;-72
2023/08/01 01:49:01;;;;;;;16.87;12.13;;;;;;;;;;5051255;28;20048;-72
2023/08/01 01:51:26;;;;;;;18.63;12.87;;;;;;;;;;5050947;28;20542;-70
2023/08/01 01:53:51;;;;;;;16.83;10.90;;;;;;;;;;5051736;28;20425;-71
2023/08/01 01:56:17;;;;;;;16.00;10.32;;;;;;;;;;5049865;28;20488;-71
2023/08/01 01:58:42;;;;;;;24.03;12.03;;;;;;;;;;5051301;28;20059;-71
2023/08/01 02:01:07;;;;;;;13.17;9.10;;;;;;;;;;5048653;28;20515;-71
2023/08/01 02:03:32;;;;;;;13.70;10.20;;;;;;;;;;5050169;28;20024;-71
2023/08/01 02:05:57;;;;;;;14.50;10.17;;;;;;;;;;5049888;28;20527;-72
2023/08/01 02:08:22;;;;;;;13.57;9.40;;;;;;;;;;5052016;28;20066;-71
2023/08/01 02:10:48;;;;;;;13.98;9.00;;;;;;;;;;5068076;28;20499;-72
2023/08/01 02:13:13;;;;;;;14.32;8.25;;;;;;;;;;5069553;28;20040;-72
2023/08/01 02:15:38;;;;;;;12.38;8.40;;;;;;;;;;5070749;28;20095;-71
2023/08/01 02:18:03;;;;;;;9.18;7.97;;;;;;;;;;5069088;28;20410;-71
2023/08/01 02:20:29;;;;;;;8.85;7.97;;;;;;;;;;5069530;28;20065;-72
2023/08/01 02:22:54;;;;;;;12.65;8.18;;;;;;;;;;5069068;28;20039;-72
2023/08/01 02:25:19;;;;;;;12.10;8.13;;;;;;;;;;5070393;28;20491;-72
2023/08/01 02:27:44;;;;;;;12.48;7.45;;;;;;;;;;5069579;28;20438;-72
2023/08/01 02:30:09;;;;;;;10.55;7.68;;;;;;;;;;5070660;28;20488;-72
2023/08/01 02:32:35;;;;;;;10.57;7.25;;;;;;;;;;5069119;28;20043;-72
2023/08/01 02:35:00;;;;;;;10.33;6.63;;;;;;;;;;5070718;28;20019;-72
2023/08/01 02:37:25;;;;;;;13.60;7.47;;;;;;;;;;5067311;28;20467;-72
2023/08/01 02:39:50;;;;;;;11.40;6.03;;;;;;;;;;5070366;28;20491;-72
2023/08/01 02:42:15;;;;;;;12.63;8.77;;;;;;;;;;5069164;28;20039;-72
2023/08/01 02:44:40;;;;;;;15.63;6.37;;;;;;;;;;5070512;28;20013;-71
2023/08/01 02:47:06;;;;;;;15.00;8.17;;;;;;;;;;5065568;28;20663;-71
2023/08/01 02:49:31;;;;;;;9.43;7.38;;;;;;;;;;5050748;28;20024;-71
2023/08/01 02:51:56;;;;;;;14.07;7.23;;;;;;;;;;5049262;28;20040;-71
2023/08/01 02:54:21;;;;;;;16.20;6.97;;;;;;;;;;5050036;28;20033;-71
2023/08/01 02:56:46;;;;;;;11.70;6.80;;;;;;;;;;5049035;28;20112;-71
2023/08/01 02:59:12;;;;;;;8.68;6.82;;;;;;;;;;5050368;28;20414;-71
2023/08/01 03:01:38;;;;;;;17.58;6.78;;;;;;;;;;5055870;28;20032;-71
2023/08/01 03:04:03;;;;;;;13.63;7.28;;;;;;;;;;5055428;28;20024;-71
2023/08/01 03:06:29;;;;;;;16.98;6.45;;;;;;;;;;5048721;28;20029;-71
2023/08/01 03:08:54;;;;;;;12.35;6.95;;;;;;;;;;5048801;28;20036;-71
2023/08/01 03:11:19;;;;;;;10.83;6.97;;;;;;;;;;5048809;28;20036;-71
2023/08/01 03:13:44;;;;;;;13.07;8.20;;;;;;;;;;5050547;28;20104;-71
2023/08/01 03:16:10;;;;;;;37.92;7.40;;;;;;;;;;5057159;28;20452;-71
2023/08/01 03:18:35;;;;;;;9.50;7.20;;;;;;;;;;5057293;28;20464;-71
2023/08/01 03:21:00;;;;;;;14.88;7.30;;;;;;;;;;5058547;28;20017;-71
2023/08/01 03:23:25;;;;;;;19.03;8.77;;;;;;;;;;5072386;28;20403;-71
2023/08/01 03:25:50;;;;;;;13.17;7.73;;;;;;;;;;5043418;28;20593;-71
2023/08/01 03:28:15;;;;;;;13.97;8.33;;;;;;;;;;5064516;28;20040;-71
2023/08/01 03:30:41;;;;;;;19.63;8.97;;;;;;;;;;5073644;28;20028;-71
2023/08/01 03:33:06;;;;;;;13.97;9.47;;;;;;;;;;5072272;28;20028;-71
2023/08/01 03:35:31;;;;;;;14.63;9.87;;;;;;;;;;5073776;28;20032;-71
2023/08/01 03:37:56;;;;;;;20.02;10.73;;;;;;;;;;5072299;28;20033;-71
2023/08/01 03:40:21;;;;;;;25.70;12.85;;;;;;;;;;5073931;28;20025;-71
2023/08/01 03:42:46;;;;;;;15.83;10.27;;;;;;;;;;5071163;28;20506;-71
2023/08/01 03:45:12;;;;;;;27.43;13.07;;;;;;;;;;5073756;28;20016;-71
2023/08/01 03:47:37;;;;;;;18.88;12.85;;;;;;;;;;5071539;28;20411;-71
2023/08/01 03:50:02;;;;;;;19.02;12.77;;;;;;;;;;5074018;28;20040;-72
2023/08/01 03:52:28;;;;;;;18.50;12.65;;;;;;;;;;5056421;28;20044;-71
2023/08/01 03:54:54;;;;;;;25.05;14.55;;;;;;;;;;5051993;28;20045;-71
2023/08/01 03:57:19;;;;;;;23.48;13.95;;;;;;;;;;5050536;28;20128;-71
2023/08/01 03:59:45;;;;;;;21.17;13.03;;;;;;;;;;5053909;28;20024;-71
2023/08/01 04:02:10;;;;;;;22.17;13.40;;;;;;;;;;5051437;28;20095;-70
2023/08/01 04:04:36;;;;;;;35.77;15.30;;;;;;;;;;5053691;28;20017;-71
2023/08/01 04:07:01;;;;;;;23.00;16.93;;;;;;;;;;5051138;28;20052;-70
2023/08/01 04:09:26;;;;;;;25.30;14.70;;;;;;;;;;5056815;28;20021;-70
2023/08/01 04:11:51;;;;;;;29.57;16.70;;;;;;;;;;5072243;28;20519;-70
2023/08/01 04:14:16;;;;;;;28.25;15.07;;;;;;;;;;5072192;28;20028;-70
2023/08/01 04:16:41;;;;;;;33.03;17.07;;;;;;;;;;5068688;28;20120;-71
2023/08/01 04:19:06;;;;;;;31.85;17.15;;;;;;;;;;5053120;28;20467;-69
2023/08/01 04:21:32;;;;;;;32.40;15.90;;;;;;;;;;5051839;28;20037;-69
2023/08/01 04:23:57;;;;;;;28.02;17.00;;;;;;;;;;5052720;28;20458;-69
2023/08/01 04:26:22;;;;;;;24.23;13.93;;;;;;;;;;5051758;28;20523;-69
2023/08/01 04:28:47;;;;;;;33.17;16.30;;;;;;;;;;5053045;28;20032;-69
2023/08/01 04:31:13;;;;;;;20.25;14.05;;;;;;;;;;5054849;28;20419;-70
2023/08/01 04:33:38;;;;;;;25.83;16.52;;;;;;;;;;5067279;28;20067;-71
2023/08/01 04:36:03;;;;;;;36.40;17.60;;;;;;;;;;5070975;28;20292;-73
2023/08/01 04:38:28;;;;;;;22.98;14.50;;;;;;;;;;5071855;28;20021;-72
2023/08/01 04:40:54;;;;;;;28.77;17.57;;;;;;;;;;5070073;28;20016;-72
2023/08/01 04:43:19;;;;;;;24.80;16.35;;;;;;;;;;5072002;28;20439;-72
2023/08/01 04:45:45;;;;;;;27.30;17.23;;;;;;;;;;5072074;28;20025;-72
2023/08/01 04:48:10;;;;;;;27.13;17.73;;;;;;;;;;5071161;28;20395;-71
2023/08/01 04:50:35;;;;;;;27.50;16.10;;;;;;;;;;5071019;28;20127;-72
2023/08/01 04:53:00;;;;;;;19.05;14.93;;;;;;;;;;5070703;28;20040;-72
2023/08/01 04:55:25;;;;;;;23.67;15.88;;;;;;;;;;5071491;28;20027;-71
2023/08/01 04:57:50;;;;;;;24.05;12.20;;;;;;;;;;5071024;28;20086;-71
2023/08/01 05:00:16;;;;;;;21.48;12.48;;;;;;;;;;5071825;28;20477;-70
2023/08/01 05:02:42;;;;;;;21.17;11.73;;;;;;;;;;5071115;28;20036;-70
2023/08/01 05:05:07;;;;;;;20.67;12.53;;;;;;;;;;5072148;28;20017;-70
2023/08/01 05:07:32;;;;;;;21.42;15.15;;;;;;;;;;5069954;28;20051;-71
2023/08/01 05:09:57;;;;;;;24.23;12.65;;;;;;;;;;5072213;28;20025;-70
2023/08/01 05:12:22;;;;;;;16.90;11.27;;;;;;;;;;5070622;28;20036;-71
2023/08/01 05:14:48;;;;;;;21.53;12.77;;;;;;;;;;5071839;28;20411;-70
2023/08/01 05:17:13;;;;;;;14.05;10.13;;;;;;;;;;5069592;28;20499;-71
2023/08/01 05:19:38;;;;;;;13.47;10.70;;;;;;;;;;5072253;28;20016;-71
2023/08/01 05:22:03;;;;;;;19.02;9.65;;;;;;;;;;5070313;28;20446;-72
2023/08/01 05:24:29;;;;;;;20.67;9.93;;;;;;;;;;5071378;28;20024;-72
2023/08/01 05:26:54;;;;;;;13.05;7.97;;;;;;;;;;5069893;28;20032;-72
2023/08/01 05:29:19;;;;;;;12.02;8.88;;;;;;;;;;5071364;28;20105;-73
2023/08/01 05:31:44;;;;;;;14.27;8.68;;;;;;;;;;5069571;28;20526;-71
2023/08/01 05:34:09;;;;;;;10.98;6.80;;;;;;;;;;5069243;28;20027;-71
2023/08/01 05:36:35;;;;;;;14.70;6.93;;;;;;;;;;5068882;28;20048;-70
2023/08/01 05:39:00;;;;;;;9.60;7.30;;;;;;;;;;5068762;28;20051;-72
2023/08/01 05:41:25;;;;;;;11.48;8.05;;;;;;;;;;5066027;28;20094;-72
2023/08/01 05:43:51;;;;;;;12.20;8.55;;;;;;;;;;5067651;28;20478;-72
2023/08/01 05:46:17;;;;;;;13.77;7.22;;;;;;;;;;5067400;28;20108;-73
2023/08/01 05:48:42;;;;;;;10.57;6.30;;;;;;;;;;5069495;28;20100;-72
2023/08/01 05:51:07;;;;;;;11.55;7.63;;;;;;;;;;5068322;28;20473;-73
2023/08/01 05:53:32;;;;;;;12.07;7.73;;;;;;;;;;5070390;28;20099;-73
2023/08/01 05:55:57;;;;;;;8.43;5.77;;;;;;;;;;5068870;28;20439;-73
2023/08/01 05:58:22;;;;;;;7.77;4.97;;;;;;;;;;5071147;28;20036;-74
2023/08/01 06:00:48;;;;;;;8.07;5.57;;;;;;;;;;5069564;28;20095;-72
2023/08/01 06:03:13;;;;;;;24.25;9.20;;;;;;;;;;5065823;28;20021;-72
2023/08/01 06:05:39;;;;;;;10.35;5.95;;;;;;;;;;5063079;28;20028;-72
2023/08/01 06:08:08;;;;;;;7.18;5.50;;;;;;;;;;5060933;28;20036;-68
2023/08/01 06:10:33;;;;;;;;;;;;;;;;;;5071859;28;20028;-71
2023/08/01 06:12:58;;;;;;;20.98;8.95;;;;;;;;;;5068984;28;19913;-72
2023/08/01 06:15:23;;;;;;;11.27;7.30;;;;;;;;;;5067655;28;20028;-70
2023/08/01 06:17:48;;;;;;;11.70;7.55;;;;;;;;;;5048404;28;20033;-70
2023/08/01 06:20:13;;;;;;;13.03;6.73;;;;;;;;;;5050885;28;20071;-70
2023/08/01 06:22:38;;;;;;;9.10;5.90;;;;;;;;;;5054274;28;20036;-69
2023/08/01 06:25:04;;;;;;;9.67;7.03;;;;;;;;;;5070670;28;20052;-70
2023/08/01 06:27:29;;;;;;;12.75;6.80;;;;;;;;;;5069324;28;20498;-71
2023/08/01 06:29:54;;;;;;;15.83;6.30;;;;;;;;;;5070400;28;20020;-70
2023/08/01 06:32:20;;;;;;;10.40;7.37;;;;;;;;;;5069228;28;20521;-70
2023/08/01 06:34:45;;;;;;;10.97;7.40;;;;;;;;;;5071081;28;21106;-73
2023/08/01 06:37:10;;;;;;;10.20;6.80;;;;;;;;;;5068623;28;20049;-72
2023/08/01 06:39:35;;;;;;;15.07;7.23;;;;;;;;;;5069449;28;20023;-71
2023/08/01 06:42:00;;;;;;;14.77;8.43;;;;;;;;;;5069309;28;20503;-72
2023/08/01 06:44:26;;;;;;;18.83;8.32;;;;;;;;;;5070172;28;20498;-72
2023/08/01 06:46:51;;;;;;;15.88;8.50;;;;;;;;;;5069208;28;20391;-72
2023/08/01 06:49:16;;;;;;;23.80;8.40;;;;;;;;;;5070217;28;20024;-72
2023/08/01 06:51:42;;;;;;;12.18;6.50;;;;;;;;;;5069010;28;20040;-71
2023/08/01 06:54:07;;;;;;;19.15;8.63;;;;;;;;;;5070106;28;20100;-71
2023/08/01 06:56:33;;;;;;;19.57;9.60;;;;;;;;;;5068383;28;20559;-71
2023/08/01 06:58:58;;;;;;;11.07;8.47;;;;;;;;;;5069730;28;20047;-72
2023/08/01 07:01:23;;;;;;;21.50;7.10;;;;;;;;;;5067705;28;20549;-71
2023/08/01 07:03:50;;;;;;;17.63;7.03;;;;;;;;;;5070668;28;20016;-71
2023/08/01 07:06:16;;;;;;;16.20;7.50;;;;;;;;;;5068246;28;20048;-71
2023/08/01 07:08:41;;;;;;;17.73;9.43;;;;;;;;;;5059827;28;20013;-71
2023/08/01 07:11:06;;;;;;;20.77;8.30;;;;;;;;;;5051500;28;20443;-70
2023/08/01 07:13:31;;;;;;;20.63;7.80;;;;;;;;;;5064180;28;20028;-71
2023/08/01 07:15:56;;;;;;;15.50;8.80;;;;;;;;;;5045707;28;20071;-70
2023/08/01 07:18:22;;;;;;;11.00;6.47;;;;;;;;;;5062202;28;21054;-71
2023/08/01 07:20:47;;;;;;;20.30;9.67;;;;;;;;;;5067998;28;20055;-69
2023/08/01 07:23:12;;;;;;;19.83;7.27;;;;;;;;;;5069975;28;20617;-68
2023/08/01 07:25:37;;;;;;;17.87;10.30;;;;;;;;;;5070217;28;20483;-70
2023/08/01 07:28:03;;;;;;;13.48;8.02;;;;;;;;;;5066786;28;20119;-70
2023/08/01 07:30:28;;;;;;;17.80;8.10;;;;;;;;;;5068470;28;20020;-70
2023/08/01 07:32:53;;;;;;;10.53;7.67;;;;;;;;;;5062211;28;20044;-69
2023/08/01 07:35:19;;;;;;;15.10;7.90;;;;;;;;;;5038125;28;20437;-69
2023/08/01 07:37:44;;;;;;;15.00;8.90;;;;;;;;;;5051307;28;20036;-69
2023/08/01 07:40:09;;;;;;;9.97;7.03;;;;;;;;;;5063133;28;20390;-70
2023/08/01 07:42:35;;;;;;;12.25;7.22;;;;;;;;;;5066989;28;20439;-70
2023/08/01 07:45:00;;;;;;;7.23;4.23;;;;;;;;;;5062133;28;20379;-70
2023/08/01 07:47:25;;;;;;;11.98;5.72;;;;;;;;;;5068590;28;20033;-70
2023/08/01 07:49:51;;;;;;;16.15;6.82;;;;;;;;;;5069337;28;20681;-70
2023/08/01 07:52:16;;;;;;;13.55;5.28;;;;;;;;;;5056309;28;20037;-69
2023/08/01 07:54:41;;;;;;;11.80;4.97;;;;;;;;;;5047976;28;20025;-70
2023/08/01 07:57:06;;;;;;;6.93;3.92;;;;;;;;;;5059033;28;20055;-70
2023/08/01 07:59:32;;;;;;;10.27;4.83;;;;;;;;;;5070222;28;20012;-69
2023/08/01 08:01:57;;;;;;;14.63;5.87;;;;;;;;;;5070244;28;20439;-69
2023/08/01 08:04:22;;;;;;;8.10;4.70;;;;;;;;;;5072895;28;20020;-69
2023/08/01 08:06:47;;;;;;;9.13;4.30;;;;;;;;;;5072040;28;20108;-69
2023/08/01 08:09:12;;;;;;;8.07;5.87;;;;;;;;;;5072719;28;20016;-69
2023/08/01 08:11:37;;;;;;;6.90;3.73;;;;;;;;;;5071574;28;20454;-70
2023/08/01 08:14:03;;;;;;;11.43;4.70;;;;;;;;;;5072638;28;20446;-70
2023/08/01 08:16:28;;;;;;;11.40;5.60;;;;;;;;;;5065450;28;20518;-70
2023/08/01 08:18:53;;;;;;;6.85;4.97;;;;;;;;;;5054439;28;20463;-69
2023/08/01 08:21:18;;;;;;;10.47;4.43;;;;;;;;;;5054889;28;20073;-70
2023/08/01 08:23:44;;;;;;;6.57;3.90;;;;;;;;;;5071043;28;20081;-69
2023/08/01 08:26:09;;;;;;;10.75;4.28;;;;;;;;;;5071299;28;20794;-69
2023/08/01 08:28:34;;;;;;;7.63;4.73;;;;;;;;;;5072772;28;20024;-69
2023/08/01 08:31:00;;;;;;;8.37;3.10;;;;;;;;;;5070289;28;20063;-69
2023/08/01 08:33:25;;;;;;;6.25;4.03;;;;;;;;;;5072136;28;20489;-69
2023/08/01 08:35:50;;;;;;;8.13;3.10;;;;;;;;;;5070203;28;20511;-69
2023/08/01 08:38:16;;;;;;;6.93;2.40;;;;;;;;;;5052318;28;21130;-69
2023/08/01 08:40:47;;;;;;;11.00;3.58;;;;;;;;;;5058860;28;20791;-69
2023/08/01 08:43:12;;;;;;;8.30;2.45;;;;;;;;;;5070547;28;20040;-69
2023/08/01 08:45:41;;;;;;;9.07;4.00;;;;;;;;;;5072348;28;20103;-69
2023/08/01 08:48:11;;;;;;;9.15;4.43;;;;;;;;;;5069111;28;20032;-69
2023/08/01 08:50:37;;;;;;;11.27;3.17;;;;;;;;;;5071832;28;20020;-69
2023/08/01 08:53:03;;;;;;;8.60;3.83;;;;;;;;;;5062475;28;20033;-69
2023/08/01 08:55:28;;;;;;;6.75;2.60;;;;;;;;;;5051055;28;20028;-69
2023/08/01 08:57:54;;;;;;;8.13;3.07;;;;;;;;;;5067355;28;20403;-69
2023/08/01 09:00:19;;;;;;;9.90;3.53;;;;;;;;;;5069590;28;20097;-69
2023/08/01 09:02:45;;;;;;;8.25;4.18;;;;;;;;;;5069249;28;20024;-69
2023/08/01 09:05:10;;;;;;;8.35;3.83;;;;;;;;;;5071461;28;20383;-71
2023/08/01 09:07:38;;;;;;;11.73;3.53;;;;;;;;;;5066810;28;20047;-69
2023/08/01 09:10:03;;;;;;;;;;;;;;;;;;5072876;28;20066;-69
2023/08/01 09:12:28;;;;;;;4.97;3.15;;;;;;;;;;5069927;28;19908;-71
2023/08/01 09:14:56;;;;;;;7.40;4.00;;;;;;;;;;5072304;28;20070;-70
2023/08/01 09:17:21;;;;;;;12.63;4.45;;;;;;;;;;5044083;28;20067;-70
2023/08/01 09:19:46;;;;;;;13.25;3.67;;;;;;;;;;5050375;28;20048;-70
2023/08/01 09:22:12;;;;;;;9.95;4.40;;;;;;;;;;5064014;28;20033;-70
2023/08/01 09:24:37;;;;;;;5.78;3.40;;;;;;;;;;5070622;28;20012;-69
2023/08/01 09:27:04;;;;;;;6.47;3.10;;;;;;;;;;5069901;28;20044;-69
2023/08/01 09:29:31;;;;;;;17.33;5.72;;;;;;;;;;5071537;28;20506;-69
2023/08/01 09:31:56;;;;;;;11.63;3.95;;;;;;;;;;5067141;28;20048;-69
2023/08/01 09:34:23;;;;;;;5.68;4.18;;;;;;;;;;5057816;28;20048;-70
2023/08/01 09:36:49;;;;;;;6.75;3.05;;;;;;;;;;5069234;28;20513;-70
2023/08/01 09:39:20;;;;;;;12.95;3.40;;;;;;;;;;5069358;28;20025;-69
2023/08/01 09:41:46;;;;;;;6.53;4.18;;;;;;;;;;5069659;28;20033;-70
2023/08/01 09:44:20;;;;;;;10.75;5.05;;;;;;;;;;5070385;28;20027;-70
2023/08/01 09:47:04;;;;;;;7.10;2.80;;;;;;;;;;5060330;28;20037;-70
2023/08/01 09:49:30;;;;;;;14.90;3.58;;;;;;;;;;5057283;28;20035;-71
2023/08/01 09:51:57;;;;;;;6.97;3.25;;;;;;;;;;5048534;28;20422;-69
2023/08/01 09:54:22;;;;;;;5.22;2.97;;;;;;;;;;5050682;28;20379;-70
2023/08/01 09:56:49;;;;;;;4.57;2.40;;;;;;;;;;5048668;28;20025;-70
2023/08/01 09:59:17;;;;;;;5.85;2.65;;;;;;;;;;5049690;28;20521;-70
2023/08/01 10:01:42;;;;;;;6.53;4.15;;;;;;;;;;5049420;28;20067;-70
2023/08/01 10:04:08;;;;;;;8.07;2.17;;;;;;;;;;5059372;28;20052;-70
2023/08/01 10:06:35;;;;;;;13.48;3.60;;;;;;;;;;5059823;28;20087;-70
2023/08/01 10:09:01;;;;;;;7.90;3.40;;;;;;;;;;5057356;28;20075;-69
2023/08/01 10:11:26;;;;;;;9.30;2.60;;;;;;;;;;5048526;28;20037;-69
2023/08/01 10:13:52;;;;;;;5.90;3.22;;;;;;;;;;5064086;28;20422;-69
2023/08/01 10:16:17;;;;;;;3.93;2.27;;;;;;;;;;5067108;28;20449;-69
2023/08/01 10:18:42;;;;;;;8.75;2.53;;;;;;;;;;5070154;28;20021;-69
2023/08/01 10:21:09;;;;;;;3.25;1.92;;;;;;;;;;5055245;28;20487;-69
2023/08/01 10:23:35;;;;;;;5.93;2.70;;;;;;;;;;5068914;28;20119;-69
2023/08/01 10:26:01;;;;;;;6.20;3.63;;;;;;;;;;5067696;28;20013;-69
2023/08/01 10:28:39;;;;;;;4.97;2.70;;;;;;;;;;5069458;28;20025;-69
2023/08/01 10:31:12;;;;;;;3.45;2.42;;;;;;;;;;5067899;28;20545;-69
2023/08/01 10:33:38;;;;;;;11.05;2.15;;;;;;;;;;5068629;28;20023;-69
2023/08/01 10:36:33;;;;;;;5.45;3.08;;;;;;;;;;5068263;28;20044;-69
2023/08/01 10:38:59;;;;;;;3.15;1.88;;;;;;;;;;5054668;28;20044;-69
2023/08/01 10:41:27;;;;;;;8.85;2.85;;;;;;;;;;5058993;28;20407;-68
2023/08/01 10:43:52;;;;;;;6.45;2.75;;;;;;;;;;5037821;28;20087;-69
2023/08/01 10:46:17;;;;;;;8.15;3.40;;;;;;;;;;5033060;28;20494;-70
2023/08/01 10:48:52;;;;;;;5.33;2.00;;;;;;;;;;5058635;28;20031;-69
2023/08/01 10:51:17;;;;;;;4.40;2.35;;;;;;;;;;5053495;28;20055;-70
2023/08/01 10:53:43;;;;;;;5.78;2.97;;;;;;;;;;5067489;28;20476;-69
2023/08/01 10:56:14;;;;;;;3.92;2.20;;;;;;;;;;5068218;28;20581;-69
2023/08/01 10:58:40;;;;;;;8.43;3.63;;;;;;;;;;5068796;28;20028;-69
2023/08/01 11:01:05;;;;;;;7.87;2.60;;;;;;;;;;5068377;28;20106;-69
2023/08/01 11:03:34;;;;;;;4.85;3.08;;;;;;;;;;5069097;28;20383;-69
2023/08/01 11:06:00;;;;;;;10.90;3.88;;;;;;;;;;5064339;28;20013;-69
2023/08/01 11:08:33;;;;;;;4.45;2.45;;;;;;;;;;5068123;28;20116;-69
2023/08/01 11:10:58;;;;;;;7.30;2.22;;;;;;;;;;5068265;28;20055;-69
2023/08/01 11:13:24;;;;;;;4.60;3.40;;;;;;;;;;5062144;28;20564;-69
2023/08/01 11:15:49;;;;;;;12.10;4.50;;;;;;;;;;5047648;28;20472;-69
2023/08/01 11:18:14;;;;;;;6.07;2.25;;;;;;;;;;5066824;28;20050;-71
2023/08/01 11:20:41;;;;;;;8.90;3.20;;;;;;;;;;5069673;28;20035;-69
2023/08/01 11:23:06;;;;;;;5.05;3.63;;;;;;;;;;5068403;28;20033;-68
2023/08/01 11:25:32;;;;;;;4.20;2.25;;;;;;;;;;5054135;28;20101;-69
2023/08/01 11:28:00;;;;;;;6.78;2.17;;;;;;;;;;5066470;28;20033;-69
2023/08/01 11:30:32;;;;;;;11.98;2.83;;;;;;;;;;5069985;28;20055;-69
2023/08/01 11:32:57;;;;;;;4.18;2.13;;;;;;;;;;5068078;28;20086;-73
2023/08/01 11:35:23;;;;;;;3.72;3.08;;;;;;;;;;5070242;28;20028;-70
2023/08/01 11:37:49;;;;;;;3.60;2.10;;;;;;;;;;5071929;28;20601;-70
2023/08/01 11:40:15;;;;;;;12.18;2.47;;;;;;;;;;5073190;28;20450;-70
2023/08/01 11:42:40;;;;;;;11.77;2.92;;;;;;;;;;5063577;28;20069;-70
2023/08/01 11:45:11;;;;;;;4.05;2.97;;;;;;;;;;5052044;28;20053;-70
2023/08/01 11:47:37;;;;;;;5.90;2.63;;;;;;;;;;5050475;28;20044;-70
2023/08/01 11:50:02;;;;;;;4.73;1.80;;;;;;;;;;5052303;28;20381;-70
2023/08/01 11:52:28;;;;;;;5.75;2.30;;;;;;;;;;5051710;28;20124;-70
2023/08/01 11:54:54;;;;;;;4.10;1.25;;;;;;;;;;5051848;28;20028;-71
2023/08/01 11:57:20;;;;;;;6.80;2.53;;;;;;;;;;5051566;28;20090;-70
2023/08/01 12:00:03;;;;;;;8.27;1.88;;;;;;;;;;5053062;28;20017;-70
2023/08/01 12:02:31;;;;;;;5.72;2.25;;;;;;;;;;5059509;28;20029;-71
2023/08/01 12:04:57;;;;;;;;;;;;;;;;;;5053763;28;20055;-69
2023/08/01 12:07:24;;;;;;;2.63;1.87;;;;;;;;;;5064621;28;19987;-71
2023/08/01 12:09:56;;;;;;;5.80;2.35;;;;;;;;;;5072836;28;20016;-70
2023/08/01 12:12:22;;;;;;;1.88;1.58;;;;;;;;;;5071274;28;20028;-68
2023/08/01 12:14:47;;;;;;;6.40;3.50;;;;;;;;;;5067191;28;20028;-70
2023/08/01 12:17:12;;;;;;;6.40;2.95;;;;;;;;;;5067068;28;20155;-70
2023/08/01 12:19:37;;;;;;;3.63;1.92;;;;;;;;;;5072985;28;20024;-72
2023/08/01 12:22:02;;;;;;;5.77;2.17;;;;;;;;;;5071196;28;20024;-70
2023/08/01 12:24:27;;;;;;;3.90;2.33;;;;;;;;;;5072200;28;20429;-69
2023/08/01 12:26:52;;;;;;;2.95;1.67;;;;;;;;;;5067143;28;20458;-74
2023/08/01 12:29:18;;;;;;;4.05;2.15;;;;;;;;;;5072036;28;20029;-73
2023/08/01 12:31:43;;;;;;;6.15;3.25;;;;;;;;;;5070132;28;20056;-74
2023/08/01 12:34:08;;;;;;;3.22;1.23;;;;;;;;;;5072064;28;20032;-75
2023/08/01 12:36:34;;;;;;;2.03;1.52;;;;;;;;;;5071031;28;20059;-74
2023/08/01 12:38:59;;;;;;;3.92;2.13;;;;;;;;;;5071546;28;20020;-74
2023/08/01 12:41:24;;;;;;;7.55;1.85;;;;;;;;;;5070440;28;20495;-73
2023/08/01 12:43:49;;;;;;;5.83;1.47;;;;;;;;;;5055235;28;20049;-74
2023/08/01 12:46:14;;;;;;;5.25;2.30;;;;;;;;;;5064804;28;20128;-74
2023/08/01 12:48:40;;;;;;;4.55;1.67;;;;;;;;;;5051667;28;20498;-73
2023/08/01 12:51:05;;;;;;;3.55;1.50;;;;;;;;;;5050964;28;20055;-74
2023/08/01 12:53:30;;;;;;;6.93;3.03;;;;;;;;;;5051859;28;20035;-74
2023/08/01 12:55:56;;;;;;;3.57;1.20;;;;;;;;;;5050877;28;20388;-74
2023/08/01 12:58:21;;;;;;;5.93;1.52;;;;;;;;;;5051636;28;20463;-73
2023/08/01 13:00:46;;;;;;;7.90;1.67;;;;;;;;;;5051145;28;20046;-73
2023/08/01 13:03:11;;;;;;;2.13;1.55;;;;;;;;;;5049375;28;20021;-72
2023/08/01 13:05:37;;;;;;;4.13;3.33;;;;;;;;;;5050706;28;20070;-72
2023/08/01 13:08:03;;;;;;;2.72;1.90;;;;;;;;;;5049558;28;20479;-73
2023/08/01 13:10:32;;;;;;;3.40;1.35;;;;;;;;;;5051440;28;20561;-73
2023/08/01 13:12:57;;;;;;;7.25;1.20;;;;;;;;;;5061533;28;20036;-72
2023/08/01 13:15:22;;;;;;;4.05;1.67;;;;;;;;;;5050542;28;20024;-73
2023/08/01 13:17:48;;;;;;;7.33;1.57;;;;;;;;;;5066269;28;20041;-72
2023/08/01 13:20:13;;;;;;;4.57;2.10;;;;;;;;;;5066011;28;20021;-73
2023/08/01 13:22:38;;;;;;;1.77;1.10;;;;;;;;;;5049751;28;20071;-74
2023/08/01 13:25:03;;;;;;;6.10;2.60;;;;;;;;;;5054698;28;20020;-73
2023/08/01 13:27:29;;;;;;;4.70;1.98;;;;;;;;;;5070137;28;20482;-73
2023/08/01 13:29:54;;;;;;;3.67;1.40;;;;;;;;;;5071341;28;20047;-74
2023/08/01 13:32:19;;;;;;;3.38;1.20;;;;;;;;;;5069650;28;20447;-73
2023/08/01 13:34:44;;;;;;;5.37;1.13;;;;;;;;;;5067631;28;20044;-73
2023/08/01 13:37:09;;;;;;;5.80;1.50;;;;;;;;;;5046645;28;20045;-73
2023/08/01 13:39:35;;;;;;;3.63;2.03;;;;;;;;;;5070740;28;20380;-73
2023/08/01 13:42:00;;;;;;;6.45;2.20;;;;;;;;;;5069555;28;20095;-73
2023/08/01 13:44:25;;;;;;;4.95;2.10;;;;;;;;;;5069642;28;20486;-73
2023/08/01 13:46:50;;;;;;;3.23;2.50;;;;;;;;;;5068579;28;20063;-73
2023/08/01 13:49:16;;;;;;;4.30;1.83;;;;;;;;;;5071261;28;20028;-73
2023/08/01 13:51:41;;;;;;;4.53;2.20;;;;;;;;;;5069924;28;20060;-73
2023/08/01 13:54:06;;;;;;;6.83;1.67;;;;;;;;;;5070643;28;20824;-74
2023/08/01 13:56:31;;;;;;;4.45;1.58;;;;;;;;;;5068645;28;20032;-73
2023/08/01 13:58:56;;;;;;;5.43;1.83;;;;;;;;;;5070558;28;20107;-73
2023/08/01 14:01:21;;;;;;;6.40;2.03;;;;;;;;;;5069043;28;20029;-73
2023/08/01 14:03:47;;;;;;;3.07;2.30;;;;;;;;;;5070338;28;20438;-73
2023/08/01 14:06:12;;;;;;;13.07;2.33;;;;;;;;;;5068714;28;20487;-73
2023/08/01 14:08:38;;;;;;;7.45;2.33;;;;;;;;;;5070556;28;20051;-73
2023/08/01 14:11:04;;;;;;;2.88;2.15;;;;;;;;;;5060377;28;20026;-72
2023/08/01 14:13:29;;;;;;;7.35;2.72;;;;;;;;;;5056774;28;20517;-73
2023/08/01 14:15:55;;;;;;;2.92;1.80;;;;;;;;;;5068923;28;20024;-72
2023/08/01 14:18:20;;;;;;;10.45;3.05;;;;;;;;;;5066056;28;20400;-73
2023/08/01 14:20:45;;;;;;;2.25;1.95;;;;;;;;;;5070711;28;20100;-72
2023/08/01 14:23:10;;;;;;;4.82;1.60;;;;;;;;;;5068620;28;20396;-72
2023/08/01 14:25:36;;;;;;;5.05;2.25;;;;;;;;;;5062613;28;20020;-73
2023/08/01 14:28:01;;;;;;;5.40;1.80;;;;;;;;;;5048430;28;20036;-72